Prairie City, IL (61470)

8:58 AM CDT on August 21, 2014 (GMT -0500)
Macomb Municipal | Change Station
CLOSE
Current Station
Airport
Location: Macomb,
Elevation: 709 ft
Nearby Weather Stations

Elev 709 ft 40.52 °N, 90.65 °W | Updated 23 minutes ago

Clear
Clear
74 °F
Feels Like 74 °F
N
7
Wind Variable Wind from SW

Today
High -- | Low -- °F
--% Chance of Precip.
Yesterday
High -- | Low -- °F
Precip. -- in
6:18 AM 7:51 PM
Waning Crescent, 14% visible
Pressure 29.96 in
Visibility 10.0 miles
Clouds Clear
Dew Point 70 °F
Humidity 88%
Rainfall 0.00 in
Snow Depth Not available.
UV 2 out of 12
Pollen 8.10 out of 12
Air Quality Not available.
Flu Activity Not available.
METAR KMQB 211335Z AUTO 22006KT 10SM CLR 24/21 A2996 RMK AO2 LTG DSNT E T02350214

More Conditions Fewer Conditions

Pressure 29.96 in
Visibility 10.0 miles
Clouds Clear
Dew Point 70 °F
Humidity 88%
Rainfall 0.00 in
Snow Depth Not available.
UV 2 out of 12
Pollen 8.10 out of 12
Air Quality Not available.
Flu Activity Not available.
METAR KMQB 211335Z AUTO 22006KT 10SM CLR 24/21 A2996 RMK AO2 LTG DSNT E T02350214

More Conditions Fewer Conditions

10-Day Weather Forecast

Almanac

Astronomy

Aug. 21, 2014 Rise Set
Actual Time 6:18 AM CDT 7:51 PM CDT
Civil Twilight 5:49 AM CDT 8:19 PM CDT
Nautical Twilight 5:14 AM CDT 8:54 PM CDT
Astronomical Twilight 4:37 AM CDT 9:31 PM CDT
Moon 2:48 AM CDT 5:20 PM CDT
Length of Visible Light 14h 30m
Length of Day
13h 32m
Tomorrow will be 2m 28s shorter.
Waning Crescent, 14% of the Moon is Illuminated
Today
Waning Crescent
Aug 25
New
Sep 2
First Quarter
Sep 8
Full
Sep 15
Last Quarter

Today's Extremes

State Highs State Lows

Community

WunderPhotos

Upload Photos

1,745,918 photos uploaded!

WunderBlogs® & News

Nearby

Snow Depth

Station Depth Elevation
No new snow has been reported.

Earthquake Activity

City Distance Mag. Time & Date
No recent earthquake activity has been reported nearby.
Minimum magnitude displayed is 2.5.

Coastal Water Temperatures

Place Temperature
No Stations Reporting

Nearby Weather Stations